Chickasaw, Iowa
Current Conditions -  °F | °C
As of 12:55 AM on Sunday 21 Dec 2014 (Local Time) from KCCY Reporting Station
Moderate Fog Moderate Fog  
Wind Chill: 24°   Ceiling: 300
Heat Index: 32°   Visibility: 0.25mi
Dew Point: 32°   Wind: 10mph
Humidity: 100%   Direction: 160°SSE
Pressure: 30.09"   Gusts: NA
Location:  43.0386°N, 92.4951°W
Report Text: KCCY 210655Z AUTO 16009KT 1/4SM FG OVC003 00/00 A3009 RMK AO2
Loading
Personal Weather Stations






























Interactive Weather Map New forecast layout! Learn more

10-Day Weather Forecast

Advertisements
Track Severe Weather on mobile